.
WxDataArchive / Data Records for 2006-06-23
2006-06-22 June 2006 2006-06-24

Data Records for Friday, 23 June 2006

Time	Temp	Chill	HIndex	Humid	Dewpt	 Wind 	HiWind	WindDir	Rain 	Barom 
-----	----	-----	------	-----	-----	------	------	-------	-----	----- 
00:00	68.6	68.6	68.6	85	63.9	0	0	---	0.00	30.015 
00:05	68.4	68.4	68.4	85	63.7	0	0	---	0.00	30.015 
00:10	68.4	68.4	68.4	85	63.7	0	0	---	0.00	30.015 
00:15	68.3	68.3	68.3	85	63.6	0	0	---	0.00	30.010 
00:20	68.1	68.1	68.1	85	63.4	0	0	---	0.00	30.010 
00:25	68.1	68.1	68.1	85	63.4	0	0	---	0.00	30.010 
00:30	68.1	68.1	68.1	85	63.4	0	0	---	0.00	30.009 
00:35	68.1	68.1	68.1	85	63.4	0	0	---	0.00	30.009 
00:40	68.1	68.1	68.1	85	63.4	0	0	---	0.00	30.009 
00:45	68.1	68.1	68.1	84	63.1	0	0	---	0.00	30.011 
00:50	67.9	67.9	67.9	84	62.9	0	0	---	0.00	30.011 
00:55	67.9	67.9	67.9	85	63.2	0	0	---	0.00	30.011 
01:00	67.8	67.8	67.8	84	62.8	0	0	---	0.00	30.007 
01:05	67.6	67.6	67.6	84	62.6	0	0	---	0.00	30.007 
01:10	67.6	67.6	67.6	84	62.6	0	0	---	0.00	30.007 
01:15	67.6	67.6	67.6	84	62.6	0	0	---	0.00	30.015 
01:20	67.6	67.6	67.6	84	62.6	0	0	---	0.00	30.015 
01:25	67.6	67.6	67.6	84	62.6	0	0	---	0.00	30.015 
01:30	67.6	67.6	67.6	84	62.6	0	0	---	0.00	30.013 
01:35	67.4	67.4	67.4	84	62.4	0	0	---	0.00	30.013 
01:40	67.3	67.3	67.3	85	62.6	0	0	---	0.00	30.013 
01:45	67.3	67.3	67.3	85	62.6	0	0	---	0.00	30.009 
01:50	67.1	67.1	67.1	85	62.4	0	0	---	0.00	30.009 
01:55	66.9	66.9	66.9	85	62.2	0	0	---	0.00	30.009 
02:00	66.9	66.9	66.9	84	61.9	0	0	---	0.00	30.006 
02:05	66.8	66.8	66.8	84	61.8	0	0	---	0.00	30.006 
02:10	66.8	66.8	66.8	83	61.5	0	0	---	0.00	30.006 
02:15	66.9	66.9	66.9	83	61.6	0	0	---	0.00	30.014 
02:20	67.1	67.1	67.1	81	61.1	0	0	---	0.00	30.014 
02:25	67.1	67.1	67.1	81	61.1	0	0	---	0.00	30.014 
02:30	67.3	67.3	67.3	80	60.9	0	0	---	0.00	30.010 
02:35	67.4	67.4	67.4	79	60.7	0	0	---	0.00	30.010 
02:40	67.6	67.6	67.6	78	60.5	0	0	---	0.00	30.010 
02:45	67.6	67.6	67.6	78	60.5	0	0	---	0.00	30.009 
02:50	67.8	67.8	67.8	78	60.7	0	0	---	0.00	30.009 
02:55	67.8	67.8	67.8	77	60.3	0	0	---	0.00	30.009 
03:00	67.8	67.8	67.8	77	60.3	0	0	---	0.00	30.012 
03:05	67.8	67.8	67.8	77	60.3	0	0	---	0.00	30.012 
03:10	67.8	67.8	67.8	77	60.3	0	0	---	0.00	30.012 
03:15	67.6	67.6	67.6	78	60.5	0	0	---	0.00	30.009 
03:20	67.6	67.6	67.6	78	60.5	0	0	---	0.00	30.009 
03:25	67.4	67.4	67.4	78	60.3	0	0	---	0.00	30.009 
03:30	67.4	67.4	67.4	78	60.3	0	0	---	0.00	30.012 
03:35	67.3	67.3	67.3	78	60.2	0	0	---	0.00	30.012 
03:40	67.3	67.3	67.3	79	60.6	0	0	---	0.00	30.012 
03:45	67.1	67.1	67.1	78	60.0	0	0	---	0.00	30.010 
03:50	67.1	67.1	67.1	79	60.4	0	0	---	0.00	30.010 
03:55	66.9	66.9	66.9	79	60.2	0	0	---	0.00	30.010 
04:00	66.9	66.9	66.9	80	60.5	0	0	---	0.00	30.015 
04:05	66.8	66.8	66.8	80	60.4	0	0	---	0.00	30.015 
04:10	66.6	66.6	66.6	80	60.2	0	0	---	0.00	30.015 
04:15	66.6	66.6	66.6	80	60.2	0	0	---	0.00	30.013 
04:20	66.4	66.4	66.4	81	60.4	0	0	---	0.00	30.013 
04:25	66.3	66.3	66.3	82	60.6	0	0	---	0.00	30.013 
04:30	66.1	66.1	66.1	82	60.4	0	0	---	0.00	30.019 
04:35	66.0	66.0	66.0	82	60.3	0	0	---	0.00	30.019 
04:40	66.0	66.0	66.0	83	60.7	0	0	---	0.00	30.019 
04:45	65.8	65.8	65.8	84	60.8	0	0	---	0.00	30.016 
04:50	65.6	65.6	65.6	84	60.6	0	0	---	0.00	30.016 
04:55	65.6	65.6	65.6	84	60.6	0	0	---	0.00	30.016 
05:00	65.5	65.5	65.5	84	60.5	0	0	---	0.00	30.011 
05:05	65.5	65.5	65.5	84	60.5	0	0	---	0.00	30.011 
05:10	65.3	65.3	65.3	84	60.3	0	0	---	0.00	30.011 
05:15	65.2	65.2	65.2	84	60.2	0	0	---	0.00	30.011 
05:20	65.2	65.2	65.2	84	60.2	0	0	---	0.00	30.011 
05:25	65.2	65.2	65.2	84	60.2	0	0	---	0.00	30.011 
05:30	65.2	65.2	65.2	85	60.6	0	0	---	0.00	30.021 
05:35	65.2	65.2	65.2	85	60.6	0	0	---	0.00	30.021 
05:40	65.0	65.0	65.0	85	60.4	0	0	---	0.00	30.021 
05:45	65.0	65.0	65.0	85	60.4	0	0	---	0.00	30.022 
05:50	65.2	65.2	65.2	85	60.6	0	0	---	0.00	30.022 
05:55	65.2	65.2	65.2	84	60.2	0	0	---	0.00	30.022 
06:00	65.3	65.3	65.3	84	60.3	0	0	---	0.00	30.027 
06:05	65.3	65.3	65.3	85	60.7	0	0	---	0.00	30.027 
06:10	65.5	65.5	65.5	84	60.5	0	0	---	0.00	30.027 
06:15	65.5	65.5	65.5	83	60.2	0	2	45	0.00	30.026 
06:20	65.6	65.6	65.6	83	60.3	0	2	45	0.00	30.026 
06:25	65.6	65.6	65.6	83	60.3	0	0	---	0.00	30.026 
06:30	65.6	65.6	65.6	83	60.3	0	0	---	0.00	30.038 
06:35	65.6	65.6	65.6	83	60.3	0	0	---	0.00	30.038 
06:40	65.5	65.5	65.5	83	60.2	0	0	---	0.00	30.038 
06:45	65.6	65.6	65.6	84	60.6	0	0	---	0.00	30.040 
06:50	65.5	65.5	65.5	85	60.9	0	0	---	0.00	30.040 
06:55	65.5	65.5	65.5	86	61.2	0	0	---	0.00	30.040 
07:00	65.5	65.5	65.5	86	61.2	0	0	---	0.00	30.044 
07:05	65.5	65.5	65.5	86	61.2	0	0	---	0.00	30.044 
07:10	65.5	65.5	65.5	86	61.2	0	0	---	0.00	30.044 
07:15	65.5	65.5	65.5	86	61.2	0	0	---	0.00	30.052 
07:20	65.6	65.6	65.6	87	61.6	0	0	---	0.00	30.052 
07:25	65.6	65.6	65.6	87	61.6	0	0	---	0.00	30.052 
07:30	65.8	65.8	65.8	86	61.5	0	0	---	0.00	30.057 
07:35	65.8	65.8	65.8	86	61.5	0	0	---	0.00	30.057 
07:40	66.0	66.0	66.0	87	62.0	0	0	---	0.00	30.057 
07:45	66.0	66.0	66.0	87	62.0	0	0	---	0.00	30.057 
07:50	66.1	66.1	66.1	87	62.1	0	0	---	0.00	30.057 
07:55	66.3	66.3	66.3	87	62.3	0	0	---	0.00	30.057 
08:00	66.3	66.3	66.3	87	62.3	0	0	---	0.00	30.063 
08:05	66.4	66.4	66.4	87	62.4	0	0	---	0.00	30.063 
08:10	66.6	66.6	66.6	86	62.3	0	0	---	0.00	30.063 
08:15	66.8	66.8	66.8	86	62.5	0	0	---	0.00	30.064 
08:20	66.9	66.9	66.9	85	62.2	0	0	---	0.00	30.064 
08:25	67.1	67.1	67.1	84	62.1	0	0	---	0.00	30.064 
08:30	67.3	67.3	67.3	83	62.0	0	0	---	0.00	30.062 
08:35	67.6	67.6	67.6	82	61.9	0	0	---	0.00	30.062 
08:40	67.8	67.8	67.8	82	62.1	0	0	---	0.00	30.062 
08:45	67.9	67.9	67.9	81	61.8	0	0	---	0.00	30.066 
08:50	68.1	68.1	68.1	79	61.3	0	0	---	0.00	30.066 
08:55	68.3	68.3	68.3	80	61.9	0	0	---	0.00	30.066 
09:00	68.4	68.4	68.4	80	62.0	0	0	---	0.00	30.071 
09:05	68.4	68.4	68.4	80	62.0	0	1	45	0.00	30.071 
09:10	68.4	68.4	68.4	80	62.0	0	1	45	0.00	30.071 
09:15	68.6	68.6	68.6	79	61.8	0	0	---	0.00	30.073 
09:20	68.8	68.8	68.8	79	62.0	0	1	45	0.00	30.073 
09:25	68.8	68.8	68.8	78	61.7	0	1	45	0.00	30.073 
09:30	68.8	68.8	68.8	78	61.7	0	1	45	0.00	30.079 
09:35	68.4	68.4	68.4	79	61.6	0	0	---	0.00	30.079 
09:40	68.3	68.3	68.3	80	61.9	0	0	---	0.00	30.079 
09:45	68.1	68.1	68.1	83	62.7	0	0	---	0.00	30.080 
09:50	68.1	68.1	68.1	81	62.0	0	1	45	0.00	30.080 
09:55	68.3	68.3	68.3	83	62.9	0	0	---	0.00	30.080 
10:00	68.4	68.4	68.4	81	62.3	0	1	45	0.00	30.076 
10:05	68.8	68.8	68.8	80	62.4	0	1	45	0.00	30.076 
10:10	69.3	69.3	69.3	80	62.9	0	1	45	0.00	30.076 
10:15	69.4	69.4	69.4	79	62.6	0	4	90	0.00	30.082 
10:20	69.4	69.4	69.4	76	61.5	0	3	90	0.00	30.082 
10:25	69.8	69.8	69.8	78	62.6	0	2	90	0.00	30.082 
10:30	69.9	69.9	69.9	77	62.3	0	2	90	0.00	30.084 
10:35	70.1	70.1	70.1	77	62.5	0	0	---	0.00	30.084 
10:40	70.3	70.3	70.3	76	62.4	0	1	90	0.00	30.084 
10:45	70.1	70.1	70.1	75	61.8	0	0	---	0.00	30.080 
10:50	70.3	70.3	70.3	74	61.6	0	2	90	0.00	30.080 
10:55	70.3	70.3	70.3	73	61.2	0	2	90	0.00	30.080 
11:00	70.3	70.3	70.3	75	62.0	1	3	90	0.00	30.075 
11:05	70.4	70.4	70.4	75	62.1	0	2	90	0.00	30.075 
11:10	70.8	70.8	70.8	74	62.1	1	3	90	0.00	30.075 
11:15	70.9	70.9	70.9	74	62.2	1	2	90	0.00	30.076 
11:20	71.1	71.1	71.1	75	62.8	0	2	90	0.00	30.076 
11:25	71.3	71.3	71.3	73	62.2	0	1	90	0.00	30.076 
11:30	71.5	71.5	71.5	73	62.4	1	3	90	0.00	30.077 
11:35	71.5	71.5	71.5	73	62.4	1	2	90	0.00	30.077 
11:40	71.5	71.5	71.5	73	62.4	1	3	90	0.00	30.077 
11:45	71.3	71.3	71.3	73	62.2	1	3	90	0.00	30.085 
11:50	71.3	71.3	71.3	73	62.2	0	1	45	0.00	30.085 
11:55	71.5	71.5	71.5	73	62.4	1	4	112	0.00	30.085 
12:00	71.6	71.6	71.6	74	62.9	0	2	90	0.00	30.083 
12:05	72.0	72.0	72.0	74	63.2	1	3	90	0.00	30.083 
12:10	72.3	72.3	72.3	70	62.0	2	3	90	0.00	30.083 
12:15	72.8	72.8	72.8	71	62.8	1	4	112	0.00	30.086 
12:20	73.3	73.3	73.3	77	65.6	0	2	112	0.00	30.086 
12:25	74.0	74.0	74.0	70	63.6	1	5	112	0.00	30.086 
12:30	74.2	74.2	74.2	72	64.6	2	4	90	0.00	30.082 
12:35	74.0	74.0	74.0	69	63.2	2	5	90	0.00	30.082 
12:40	74.2	74.2	74.2	68	62.9	2	4	90	0.00	30.082 
12:45	74.6	74.6	74.6	69	63.7	2	4	90	0.00	30.081 
12:50	74.9	74.9	74.9	71	64.8	2	6	90	0.00	30.081 
12:55	75.4	75.4	77.3	67	63.7	2	5	90	0.00	30.081 
13:00	75.6	75.6	77.6	63	62.1	2	5	90	0.00	30.074 
13:05	75.6	75.6	77.5	65	63.0	2	5	90	0.00	30.074 
13:10	75.1	75.1	77.2	64	62.1	1	4	90	0.00	30.074 
13:15	75.3	75.3	77.2	67	63.6	0	2	90	0.00	30.072 
13:20	75.8	75.8	77.8	62	61.8	0	2	90	0.00	30.072 
13:25	75.6	75.6	77.5	65	63.0	1	3	90	0.00	30.072 
13:30	76.3	76.3	78.1	65	63.6	1	5	90	0.00	30.071 
13:35	76.5	76.5	78.3	66	64.3	1	3	90	0.00	30.071 
13:40	76.8	76.8	78.6	68	65.4	1	3	90	0.00	30.071 
13:45	76.8	76.8	78.6	63	63.2	2	4	90	0.00	30.069 
13:50	77.0	77.0	78.8	65	64.3	0	2	90	0.00	30.069 
13:55	77.4	77.4	79.2	64	64.2	0	2	90	0.00	30.069 
14:00	77.9	77.9	79.7	63	64.3	1	4	90	0.00	30.068 
14:05	77.9	77.9	79.7	65	65.2	1	3	90	0.01	30.068 
14:10	78.1	78.1	79.9	63	64.5	1	2	90	0.00	30.068 
14:15	77.6	77.6	79.3	61	63.1	2	4	90	0.00	30.066 
14:20	76.8	76.8	78.6	64	63.7	2	4	112	0.00	30.066 
14:25	77.0	77.0	78.8	60	62.0	1	3	112	0.00	30.066 
14:30	77.4	77.4	79.2	62	63.3	2	4	90	0.00	30.059 
14:35	77.4	77.4	79.2	62	63.3	1	3	90	0.00	30.059 
14:40	77.6	77.6	79.2	58	61.6	3	6	90	0.00	30.059 
14:45	77.9	77.9	79.4	56	60.9	1	4	90	0.00	30.055 
14:50	77.9	77.9	79.4	56	60.9	0	2	90	0.00	30.055 
14:55	77.9	77.9	79.5	58	61.9	1	5	90	0.00	30.055 
15:00	78.3	78.3	80.1	62	64.2	1	7	90	0.00	30.052 
15:05	78.5	78.5	80.0	58	62.5	2	4	90	0.00	30.052 
15:10	78.3	78.3	80.0	60	63.2	1	3	90	0.00	30.052 
15:15	77.9	77.9	79.5	59	62.4	2	4	90	0.00	30.053 
15:20	77.7	77.7	79.3	58	61.7	0	3	90	0.00	30.053 
15:25	78.1	78.1	79.7	59	62.6	1	3	90	0.00	30.053 
15:30	78.3	78.3	79.9	59	62.8	3	7	90	0.00	30.049 
15:35	78.1	78.1	79.7	59	62.6	2	5	112	0.00	30.049 
15:40	78.1	78.1	79.6	57	61.6	2	5	112	0.00	30.049 
15:45	78.6	78.6	80.2	59	63.1	1	5	90	0.00	30.035 
15:50	79.2	79.2	80.7	57	62.6	2	5	90	0.00	30.035 
15:55	79.4	79.4	80.9	57	62.8	2	5	112	0.00	30.035 
16:00	78.8	78.8	80.4	59	63.2	3	6	90	0.00	30.037 
16:05	78.8	78.8	80.5	60	63.7	2	6	90	0.00	30.037 
16:10	79.6	79.6	80.9	55	62.0	1	4	112	0.00	30.037 
16:15	80.1	80.1	81.3	54	61.9	1	3	112	0.00	30.034 
16:20	79.8	79.8	81.0	54	61.7	2	3	90	0.00	30.034 
16:25	79.0	79.0	80.4	56	61.9	1	4	90	0.00	30.034 
16:30	78.6	78.6	80.2	59	63.1	2	4	90	0.00	30.030 
16:35	78.8	78.8	80.3	58	62.8	1	3	112	0.00	30.030 
16:40	79.0	79.0	80.7	60	63.9	2	4	90	0.00	30.030 
16:45	78.6	78.6	80.1	58	62.6	1	4	90	0.00	30.027 
16:50	78.1	78.1	79.7	58	62.1	2	4	90	0.00	30.027 
16:55	78.3	78.3	79.9	59	62.8	0	1	112	0.00	30.027 
17:00	78.8	78.8	80.1	54	60.7	1	3	112	0.00	30.021 
17:05	79.2	79.2	80.5	55	61.6	1	3	112	0.00	30.021 
17:10	79.4	79.4	80.8	56	62.3	1	3	112	0.00	30.021 
17:15	79.6	79.6	80.8	54	61.5	1	4	90	0.00	30.021 
17:20	79.2	79.2	80.5	55	61.6	2	4	90	0.00	30.021 
17:25	79.0	79.0	80.5	57	62.4	1	2	112	0.00	30.021 
17:30	78.5	78.5	80.0	57	62.0	2	5	90	0.00	30.020 
17:35	77.9	77.9	79.5	59	62.4	2	4	90	0.00	30.020 
17:40	77.7	77.7	79.3	57	61.2	1	4	90	0.00	30.020 
17:45	77.7	77.7	79.4	60	62.7	1	2	68	0.00	30.022 
17:50	77.9	77.9	79.6	61	63.3	1	3	68	0.00	30.022 
17:55	77.9	77.9	79.5	58	61.9	0	1	68	0.00	30.022 
18:00	77.9	77.9	79.6	61	63.3	0	2	68	0.00	30.023 
18:05	77.7	77.7	79.4	59	62.2	1	3	68	0.00	30.023 
18:10	77.7	77.7	79.4	61	63.2	0	2	68	0.00	30.023 
18:15	77.7	77.7	79.4	60	62.7	1	2	68	0.00	30.022 
18:20	77.9	77.9	79.5	57	61.4	1	4	68	0.00	30.022 
18:25	78.1	78.1	79.7	58	62.1	1	3	68	0.00	30.022 
18:30	78.1	78.1	79.6	57	61.6	1	4	68	0.00	30.020 
18:35	78.1	78.1	79.6	57	61.6	1	3	90	0.00	30.020 
18:40	78.1	78.1	79.6	57	61.6	1	2	90	0.00	30.020 
18:45	77.9	77.9	79.5	58	61.9	1	3	90	0.00	30.011 
18:50	77.7	77.7	79.3	57	61.2	1	4	90	0.00	30.011 
18:55	77.7	77.7	79.3	57	61.2	1	5	90	0.00	30.011 
19:00	77.6	77.6	79.2	58	61.6	0	2	112	0.00	30.015 
19:05	77.6	77.6	79.3	60	62.6	0	1	112	0.00	30.015 
19:10	77.2	77.2	79.0	61	62.7	0	3	112	0.00	30.015 
19:15	76.8	76.8	78.6	61	62.3	1	3	112	0.00	30.012 
19:20	76.7	76.7	78.5	62	62.7	1	3	112	0.00	30.012 
19:25	76.5	76.5	78.3	64	63.4	1	3	90	0.00	30.012 
19:30	76.3	76.3	78.2	62	62.3	0	1	90	0.00	30.016 
19:35	76.3	76.3	78.2	64	63.2	0	1	90	0.00	30.016 
19:40	76.0	76.0	77.9	65	63.4	0	0	---	0.00	30.016 
19:45	75.8	75.8	77.7	64	62.7	0	1	90	0.00	30.017 
19:50	75.6	75.6	77.6	64	62.5	0	1	90	0.00	30.017 
19:55	75.6	75.6	77.5	65	63.0	0	1	90	0.00	30.017 
20:00	75.6	75.6	77.5	65	63.0	1	3	90	0.00	30.018 
20:05	75.4	75.4	77.4	64	62.4	0	1	90	0.00	30.018 
20:10	75.4	75.4	77.4	65	62.8	0	1	90	0.00	30.018 
20:15	75.3	75.3	77.2	66	63.1	0	2	90	0.00	30.019 
20:20	75.3	75.3	77.3	65	62.7	0	1	90	0.00	30.019 
20:25	75.1	75.1	77.0	67	63.4	0	2	90	0.00	30.019 
20:30	75.1	75.1	77.0	67	63.4	0	1	90	0.00	30.022 
20:35	74.9	74.9	74.9	68	63.6	0	1	22	0.00	30.022 
20:40	74.7	74.7	74.7	69	63.8	0	2	22	0.00	30.022 
20:45	74.6	74.6	74.6	69	63.7	0	2	22	0.00	30.024 
20:50	74.4	74.4	74.4	69	63.5	0	0	---	0.00	30.024 
20:55	74.4	74.4	74.4	69	63.5	0	2	22	0.00	30.024 
21:00	74.2	74.2	74.2	69	63.4	0	2	22	0.00	30.023 
21:05	74.0	74.0	74.0	71	64.0	0	0	---	0.00	30.023 
21:10	73.9	73.9	73.9	74	65.1	0	0	---	0.00	30.023 
21:15	73.0	73.0	73.0	77	65.3	0	4	292	0.00	30.033 
21:20	71.8	71.8	71.8	81	65.6	1	2	292	0.02	30.033 
21:25	70.8	70.8	70.8	84	65.7	0	1	292	0.00	30.033 
21:30	70.1	70.1	70.1	86	65.7	0	1	292	0.00	30.041 
21:35	69.6	69.6	69.6	88	65.9	0	1	292	0.01	30.041 
21:40	69.4	69.4	69.4	89	66.0	0	1	292	0.00	30.041 
21:45	69.1	69.1	69.1	90	66.0	0	1	292	0.00	30.044 
21:50	68.9	68.9	68.9	90	65.8	0	0	---	0.00	30.044 
21:55	68.9	68.9	68.9	91	66.2	0	0	---	0.00	30.044 
22:00	68.8	68.8	68.8	91	66.1	0	0	---	0.00	30.052 
22:05	68.8	68.8	68.8	91	66.1	0	1	292	0.01	30.052 
22:10	68.8	68.8	68.8	90	65.7	0	1	292	0.00	30.052 
22:15	68.8	68.8	68.8	90	65.7	0	1	292	0.00	30.056 
22:20	68.8	68.8	68.8	90	65.7	0	0	---	0.00	30.056 
22:25	68.8	68.8	68.8	91	66.1	0	0	---	0.00	30.056 
22:30	68.8	68.8	68.8	91	66.1	0	0	---	0.00	30.057 
22:35	68.6	68.6	68.6	91	65.9	0	0	---	0.00	30.057 
22:40	68.6	68.6	68.6	91	65.9	0	0	---	0.00	30.057 
22:45	68.6	68.6	68.6	91	65.9	0	0	---	0.00	30.060 
22:50	68.6	68.6	68.6	91	65.9	0	0	---	0.00	30.060 
22:55	68.6	68.6	68.6	91	65.9	0	0	---	0.00	30.060 
23:00	68.6	68.6	68.6	91	65.9	0	0	---	0.00	30.066 
23:05	68.4	68.4	68.4	91	65.7	0	0	---	0.00	30.066 
23:10	68.3	68.3	68.3	91	65.6	0	0	---	0.00	30.066 
23:15	68.1	68.1	68.1	90	65.0	0	2	292	0.00	30.069 
23:20	67.9	67.9	67.9	88	64.2	0	2	338	0.00	30.069 
23:25	67.8	67.8	67.8	88	64.1	0	0	---	0.00	30.069 
23:30	67.6	67.6	67.6	86	63.3	0	1	338	0.00	30.065 
23:35	67.6	67.6	67.6	84	62.6	0	2	90	0.00	30.065 
23:40	67.4	67.4	67.4	84	62.4	0	1	90	0.00	30.065 
23:45	67.4	67.4	67.4	83	62.0	0	1	90	0.00	30.066 
23:50	67.3	67.3	67.3	83	62.0	0	2	68	0.00	30.066 
23:55	67.3	67.3	67.3	82	61.6	0	2	45	0.00	30.066 

CoCoRaHS
IN-AL-39
A2 Web Hosting
Creative Commons License
GoDaddy
Look for:

loaded 2017-12-13 15:44:01 • last modified 2010-11-18 10:43:29
Privacy PolicyDisclaimer
• wx.awcolley.com is powered by PmWiki v.2002016 •
• all content (unless otherwise noted) © 2017 A W Colley